sensor_id;sensor_type;location;lat;lon;timestamp;P1;durP1;ratioP1;P2;durP2;ratioP2
21731;SDS011;11028;51.156;17.130;2022-08-27T00:03:40;13.30;;;6.85;;
21731;SDS011;11028;51.156;17.130;2022-08-27T00:10:59;10.98;;;6.68;;
21731;SDS011;11028;51.156;17.130;2022-08-27T00:18:16;14.80;;;7.57;;
21731;SDS011;11028;51.156;17.130;2022-08-27T00:25:35;18.35;;;7.38;;
21731;SDS011;11028;51.156;17.130;2022-08-27T00:32:53;13.73;;;7.05;;
21731;SDS011;11028;51.156;17.130;2022-08-27T00:40:12;12.60;;;6.32;;
21731;SDS011;11028;51.156;17.130;2022-08-27T00:47:31;17.40;;;6.80;;
21731;SDS011;11028;51.156;17.130;2022-08-27T00:54:52;12.13;;;6.40;;
21731;SDS011;11028;51.156;17.130;2022-08-27T01:02:13;12.48;;;7.18;;
21731;SDS011;11028;51.156;17.130;2022-08-27T01:09:40;15.32;;;7.10;;
21731;SDS011;11028;51.156;17.130;2022-08-27T01:16:59;15.13;;;7.07;;
21731;SDS011;11028;51.156;17.130;2022-08-27T01:24:42;13.63;;;7.50;;
21731;SDS011;11028;51.156;17.130;2022-08-27T01:32:04;14.63;;;7.75;;
21731;SDS011;11028;51.156;17.130;2022-08-27T01:39:23;13.33;;;7.37;;
21731;SDS011;11028;51.156;17.130;2022-08-27T01:46:41;15.57;;;7.38;;
21731;SDS011;11028;51.156;17.130;2022-08-27T01:53:58;14.38;;;7.30;;
21731;SDS011;11028;51.156;17.130;2022-08-27T02:01:15;18.05;;;6.78;;
21731;SDS011;11028;51.156;17.130;2022-08-27T02:08:33;12.18;;;6.70;;
21731;SDS011;11028;51.156;17.130;2022-08-27T02:15:50;14.13;;;7.65;;
21731;SDS011;11028;51.156;17.130;2022-08-27T02:23:07;18.27;;;8.98;;
21731;SDS011;11028;51.156;17.130;2022-08-27T02:30:26;16.23;;;8.25;;
21731;SDS011;11028;51.156;17.130;2022-08-27T02:37:44;17.00;;;8.10;;
21731;SDS011;11028;51.156;17.130;2022-08-27T02:45:01;9.77;;;7.40;;
21731;SDS011;11028;51.156;17.130;2022-08-27T02:52:20;12.20;;;7.88;;
21731;SDS011;11028;51.156;17.130;2022-08-27T02:59:37;19.75;;;11.93;;
21731;SDS011;11028;51.156;17.130;2022-08-27T03:06:54;13.35;;;8.88;;
21731;SDS011;11028;51.156;17.130;2022-08-27T03:14:12;15.90;;;8.55;;
21731;SDS011;11028;51.156;17.130;2022-08-27T03:21:29;14.35;;;8.60;;
21731;SDS011;11028;51.156;17.130;2022-08-27T03:28:46;12.73;;;8.18;;
21731;SDS011;11028;51.156;17.130;2022-08-27T03:36:04;14.65;;;8.75;;
21731;SDS011;11028;51.156;17.130;2022-08-27T03:43:22;17.85;;;8.52;;
21731;SDS011;11028;51.156;17.130;2022-08-27T03:50:40;20.58;;;11.98;;
21731;SDS011;11028;51.156;17.130;2022-08-27T03:57:59;16.73;;;8.75;;
21731;SDS011;11028;51.156;17.130;2022-08-27T04:05:16;19.80;;;9.80;;
21731;SDS011;11028;51.156;17.130;2022-08-27T04:12:33;20.55;;;9.18;;
21731;SDS011;11028;51.156;17.130;2022-08-27T04:19:51;12.32;;;8.75;;
21731;SDS011;11028;51.156;17.130;2022-08-27T04:27:11;13.90;;;8.30;;
21731;SDS011;11028;51.156;17.130;2022-08-27T04:34:29;15.88;;;8.95;;
21731;SDS011;11028;51.156;17.130;2022-08-27T04:41:48;17.05;;;9.75;;
21731;SDS011;11028;51.156;17.130;2022-08-27T04:49:06;16.10;;;9.70;;
21731;SDS011;11028;51.156;17.130;2022-08-27T04:56:24;22.65;;;10.82;;
21731;SDS011;11028;51.156;17.130;2022-08-27T05:03:43;17.60;;;10.00;;
21731;SDS011;11028;51.156;17.130;2022-08-27T05:11:00;18.95;;;11.20;;
21731;SDS011;11028;51.156;17.130;2022-08-27T05:18:17;22.27;;;12.00;;
21731;SDS011;11028;51.156;17.130;2022-08-27T05:25:37;21.38;;;11.98;;
21731;SDS011;11028;51.156;17.130;2022-08-27T05:32:55;18.48;;;11.10;;
21731;SDS011;11028;51.156;17.130;2022-08-27T05:40:12;22.25;;;10.73;;
21731;SDS011;11028;51.156;17.130;2022-08-27T05:47:33;24.17;;;11.23;;
21731;SDS011;11028;51.156;17.130;2022-08-27T05:54:50;22.20;;;13.25;;
21731;SDS011;11028;51.156;17.130;2022-08-27T06:02:06;23.30;;;12.02;;
21731;SDS011;11028;51.156;17.130;2022-08-27T06:09:25;18.92;;;11.70;;
21731;SDS011;11028;51.156;17.130;2022-08-27T06:16:43;21.35;;;10.93;;
21731;SDS011;11028;51.156;17.130;2022-08-27T06:24:00;17.35;;;10.05;;
21731;SDS011;11028;51.156;17.130;2022-08-27T06:31:20;16.58;;;9.80;;
21731;SDS011;11028;51.156;17.130;2022-08-27T06:38:37;30.02;;;15.48;;
21731;SDS011;11028;51.156;17.130;2022-08-27T06:45:54;25.05;;;11.68;;
21731;SDS011;11028;51.156;17.130;2022-08-27T06:53:12;13.88;;;9.90;;
21731;SDS011;11028;51.156;17.130;2022-08-27T07:00:29;16.98;;;10.32;;
21731;SDS011;11028;51.156;17.130;2022-08-27T07:07:46;19.70;;;11.02;;
21731;SDS011;11028;51.156;17.130;2022-08-27T07:15:04;20.75;;;10.38;;
21731;SDS011;11028;51.156;17.130;2022-08-27T07:22:22;19.52;;;10.68;;
21731;SDS011;11028;51.156;17.130;2022-08-27T07:29:39;20.30;;;9.80;;
21731;SDS011;11028;51.156;17.130;2022-08-27T07:36:57;20.67;;;10.43;;
21731;SDS011;11028;51.156;17.130;2022-08-27T07:44:13;18.48;;;9.88;;
21731;SDS011;11028;51.156;17.130;2022-08-27T07:51:42;20.08;;;10.77;;
21731;SDS011;11028;51.156;17.130;2022-08-27T07:59:01;19.80;;;10.55;;
21731;SDS011;11028;51.156;17.130;2022-08-27T08:06:17;20.75;;;9.48;;
21731;SDS011;11028;51.156;17.130;2022-08-27T08:13:34;18.23;;;9.88;;
21731;SDS011;11028;51.156;17.130;2022-08-27T08:20:52;16.00;;;8.77;;
21731;SDS011;11028;51.156;17.130;2022-08-27T08:28:14;13.75;;;8.85;;
21731;SDS011;11028;51.156;17.130;2022-08-27T08:35:30;21.30;;;9.43;;
21731;SDS011;11028;51.156;17.130;2022-08-27T08:42:51;21.85;;;8.65;;
21731;SDS011;11028;51.156;17.130;2022-08-27T08:51:18;13.65;;;8.63;;
21731;SDS011;11028;51.156;17.130;2022-08-27T08:58:41;14.90;;;8.32;;
21731;SDS011;11028;51.156;17.130;2022-08-27T09:06:03;16.75;;;8.45;;
21731;SDS011;11028;51.156;17.130;2022-08-27T09:13:22;44.37;;;13.03;;
21731;SDS011;11028;51.156;17.130;2022-08-27T09:20:43;21.50;;;9.90;;
21731;SDS011;11028;51.156;17.130;2022-08-27T09:28:04;22.70;;;10.97;;
21731;SDS011;11028;51.156;17.130;2022-08-27T09:36:32;24.40;;;10.25;;
21731;SDS011;11028;51.156;17.130;2022-08-27T09:43:55;22.13;;;8.93;;
21731;SDS011;11028;51.156;17.130;2022-08-27T09:51:13;17.77;;;8.35;;
21731;SDS011;11028;51.156;17.130;2022-08-27T09:58:46;14.65;;;7.50;;
21731;SDS011;11028;51.156;17.130;2022-08-27T10:06:05;19.13;;;7.23;;
21731;SDS011;11028;51.156;17.130;2022-08-27T10:13:25;14.38;;;6.88;;
21731;SDS011;11028;51.156;17.130;2022-08-27T10:20:51;12.63;;;6.97;;
21731;SDS011;11028;51.156;17.130;2022-08-27T10:28:18;12.05;;;6.97;;
21731;SDS011;11028;51.156;17.130;2022-08-27T10:35:40;16.73;;;7.70;;
21731;SDS011;11028;51.156;17.130;2022-08-27T10:43:04;13.02;;;6.43;;
21731;SDS011;11028;51.156;17.130;2022-08-27T10:50:33;12.43;;;6.80;;
21731;SDS011;11028;51.156;17.130;2022-08-27T10:57:59;16.35;;;7.50;;
21731;SDS011;11028;51.156;17.130;2022-08-27T11:05:26;11.95;;;6.72;;
21731;SDS011;11028;51.156;17.130;2022-08-27T11:12:46;8.68;;;5.45;;
21731;SDS011;11028;51.156;17.130;2022-08-27T11:20:06;7.57;;;4.53;;
21731;SDS011;11028;51.156;17.130;2022-08-27T11:27:28;10.10;;;5.00;;
21731;SDS011;11028;51.156;17.130;2022-08-27T11:34:47;8.15;;;4.28;;
21731;SDS011;11028;51.156;17.130;2022-08-27T11:42:07;7.82;;;5.40;;
21731;SDS011;11028;51.156;17.130;2022-08-27T11:49:27;10.48;;;5.85;;
21731;SDS011;11028;51.156;17.130;2022-08-27T11:56:45;8.57;;;5.60;;
21731;SDS011;11028;51.156;17.130;2022-08-27T12:04:05;9.23;;;5.35;;
21731;SDS011;11028;51.156;17.130;2022-08-27T12:11:26;10.02;;;6.25;;
21731;SDS011;11028;51.156;17.130;2022-08-27T12:18:58;10.18;;;5.55;;
21731;SDS011;11028;51.156;17.130;2022-08-27T12:26:26;8.73;;;5.68;;
21731;SDS011;11028;51.156;17.130;2022-08-27T12:33:47;10.25;;;5.80;;
21731;SDS011;11028;51.156;17.130;2022-08-27T12:41:07;7.20;;;4.60;;
21731;SDS011;11028;51.156;17.130;2022-08-27T12:48:25;8.68;;;5.15;;
21731;SDS011;11028;51.156;17.130;2022-08-27T12:55:51;13.32;;;5.38;;
21731;SDS011;11028;51.156;17.130;2022-08-27T13:03:20;10.25;;;5.90;;
21731;SDS011;11028;51.156;17.130;2022-08-27T13:10:45;11.63;;;5.45;;
21731;SDS011;11028;51.156;17.130;2022-08-27T13:18:02;8.27;;;5.38;;
21731;SDS011;11028;51.156;17.130;2022-08-27T13:25:24;6.90;;;4.40;;
21731;SDS011;11028;51.156;17.130;2022-08-27T13:32:43;8.85;;;5.03;;
21731;SDS011;11028;51.156;17.130;2022-08-27T13:40:00;9.05;;;4.47;;
21731;SDS011;11028;51.156;17.130;2022-08-27T13:47:19;10.38;;;4.90;;
21731;SDS011;11028;51.156;17.130;2022-08-27T13:54:37;10.50;;;5.32;;
21731;SDS011;11028;51.156;17.130;2022-08-27T14:01:55;7.47;;;4.78;;
21731;SDS011;11028;51.156;17.130;2022-08-27T14:09:16;8.85;;;4.40;;
21731;SDS011;11028;51.156;17.130;2022-08-27T14:23:54;5.13;;;4.53;;
21731;SDS011;11028;51.156;17.130;2022-08-27T14:31:13;7.20;;;4.78;;
21731;SDS011;11028;51.156;17.130;2022-08-27T14:38:30;8.50;;;4.75;;
21731;SDS011;11028;51.156;17.130;2022-08-27T14:45:48;7.38;;;4.20;;
21731;SDS011;11028;51.156;17.130;2022-08-27T14:53:06;8.45;;;4.78;;
21731;SDS011;11028;51.156;17.130;2022-08-27T15:00:23;8.40;;;4.65;;
21731;SDS011;11028;51.156;17.130;2022-08-27T15:07:40;8.43;;;4.57;;
21731;SDS011;11028;51.156;17.130;2022-08-27T15:14:58;16.40;;;7.57;;
21731;SDS011;11028;51.156;17.130;2022-08-27T15:22:15;11.60;;;4.00;;
21731;SDS011;11028;51.156;17.130;2022-08-27T15:29:33;8.70;;;4.78;;
21731;SDS011;11028;51.156;17.130;2022-08-27T15:36:51;9.52;;;4.05;;
21731;SDS011;11028;51.156;17.130;2022-08-27T15:44:08;8.65;;;4.90;;
21731;SDS011;11028;51.156;17.130;2022-08-27T15:51:26;10.68;;;4.85;;
21731;SDS011;11028;51.156;17.130;2022-08-27T15:58:45;6.97;;;4.60;;
21731;SDS011;11028;51.156;17.130;2022-08-27T16:06:03;6.55;;;4.70;;
21731;SDS011;11028;51.156;17.130;2022-08-27T16:13:20;7.82;;;4.72;;
21731;SDS011;11028;51.156;17.130;2022-08-27T16:20:40;9.40;;;5.30;;
21731;SDS011;11028;51.156;17.130;2022-08-27T16:27:58;11.65;;;7.18;;
21731;SDS011;11028;51.156;17.130;2022-08-27T16:35:15;8.00;;;5.28;;
21731;SDS011;11028;51.156;17.130;2022-08-27T16:42:41;7.18;;;4.90;;
21731;SDS011;11028;51.156;17.130;2022-08-27T16:49:58;11.35;;;5.68;;
21731;SDS011;11028;51.156;17.130;2022-08-27T16:57:34;8.63;;;4.90;;
21731;SDS011;11028;51.156;17.130;2022-08-27T17:04:52;10.52;;;6.47;;
21731;SDS011;11028;51.156;17.130;2022-08-27T17:12:09;7.88;;;5.75;;
21731;SDS011;11028;51.156;17.130;2022-08-27T17:19:28;10.32;;;5.47;;
21731;SDS011;11028;51.156;17.130;2022-08-27T17:26:46;12.15;;;6.00;;
21731;SDS011;11028;51.156;17.130;2022-08-27T17:34:05;10.52;;;5.55;;
21731;SDS011;11028;51.156;17.130;2022-08-27T17:41:25;11.95;;;6.20;;
21731;SDS011;11028;51.156;17.130;2022-08-27T17:48:43;13.73;;;6.25;;
21731;SDS011;11028;51.156;17.130;2022-08-27T17:56:00;37.45;;;25.70;;
21731;SDS011;11028;51.156;17.130;2022-08-27T18:03:18;26.25;;;15.05;;
21731;SDS011;11028;51.156;17.130;2022-08-27T18:10:35;12.55;;;8.10;;
21731;SDS011;11028;51.156;17.130;2022-08-27T18:17:53;12.88;;;8.85;;
21731;SDS011;11028;51.156;17.130;2022-08-27T18:25:12;16.65;;;8.98;;
21731;SDS011;11028;51.156;17.130;2022-08-27T18:32:29;13.73;;;8.80;;
21731;SDS011;11028;51.156;17.130;2022-08-27T18:39:46;15.50;;;9.45;;
21731;SDS011;11028;51.156;17.130;2022-08-27T18:47:04;21.33;;;11.60;;
21731;SDS011;11028;51.156;17.130;2022-08-27T18:54:21;15.93;;;9.73;;
21731;SDS011;11028;51.156;17.130;2022-08-27T19:01:38;12.95;;;9.57;;
21731;SDS011;11028;51.156;17.130;2022-08-27T19:08:57;14.50;;;8.82;;
21731;SDS011;11028;51.156;17.130;2022-08-27T19:16:15;17.75;;;11.70;;
21731;SDS011;11028;51.156;17.130;2022-08-27T19:23:33;20.38;;;10.35;;
21731;SDS011;11028;51.156;17.130;2022-08-27T19:30:52;20.30;;;11.75;;
21731;SDS011;11028;51.156;17.130;2022-08-27T19:38:09;18.33;;;12.32;;
21731;SDS011;11028;51.156;17.130;2022-08-27T19:45:27;19.05;;;12.77;;
21731;SDS011;11028;51.156;17.130;2022-08-27T19:52:45;22.60;;;12.13;;
21731;SDS011;11028;51.156;17.130;2022-08-27T20:00:03;17.52;;;12.07;;
21731;SDS011;11028;51.156;17.130;2022-08-27T20:07:24;27.83;;;20.03;;
21731;SDS011;11028;51.156;17.130;2022-08-27T20:14:43;30.55;;;18.10;;
21731;SDS011;11028;51.156;17.130;2022-08-27T20:21:59;33.17;;;18.10;;
21731;SDS011;11028;51.156;17.130;2022-08-27T20:29:17;29.10;;;16.58;;
21731;SDS011;11028;51.156;17.130;2022-08-27T20:36:35;20.90;;;13.20;;
21731;SDS011;11028;51.156;17.130;2022-08-27T20:43:53;19.65;;;12.07;;
21731;SDS011;11028;51.156;17.130;2022-08-27T20:51:09;16.48;;;11.25;;
21731;SDS011;11028;51.156;17.130;2022-08-27T20:58:28;23.10;;;14.32;;
21731;SDS011;11028;51.156;17.130;2022-08-27T21:06:02;18.67;;;11.40;;
21731;SDS011;11028;51.156;17.130;2022-08-27T21:13:19;18.13;;;10.88;;
21731;SDS011;11028;51.156;17.130;2022-08-27T21:20:38;14.63;;;10.38;;
21731;SDS011;11028;51.156;17.130;2022-08-27T21:27:55;18.52;;;10.73;;
21731;SDS011;11028;51.156;17.130;2022-08-27T21:35:12;23.85;;;10.88;;
21731;SDS011;11028;51.156;17.130;2022-08-27T21:42:31;16.65;;;11.18;;
21731;SDS011;11028;51.156;17.130;2022-08-27T21:49:47;18.60;;;12.73;;
21731;SDS011;11028;51.156;17.130;2022-08-27T21:57:04;17.25;;;13.73;;
21731;SDS011;11028;51.156;17.130;2022-08-27T22:04:23;21.85;;;14.20;;
21731;SDS011;11028;51.156;17.130;2022-08-27T22:11:41;23.75;;;16.05;;
21731;SDS011;11028;51.156;17.130;2022-08-27T22:18:59;22.98;;;14.85;;
21731;SDS011;11028;51.156;17.130;2022-08-27T22:26:17;27.15;;;17.00;;
21731;SDS011;11028;51.156;17.130;2022-08-27T22:33:34;23.67;;;17.48;;
21731;SDS011;11028;51.156;17.130;2022-08-27T22:40:50;26.75;;;19.58;;
21731;SDS011;11028;51.156;17.130;2022-08-27T22:48:09;29.33;;;20.67;;
21731;SDS011;11028;51.156;17.130;2022-08-27T22:55:25;31.15;;;21.58;;
21731;SDS011;11028;51.156;17.130;2022-08-27T23:02:44;28.70;;;20.63;;
21731;SDS011;11028;51.156;17.130;2022-08-27T23:10:02;30.20;;;21.33;;
21731;SDS011;11028;51.156;17.130;2022-08-27T23:17:20;31.83;;;22.73;;
21731;SDS011;11028;51.156;17.130;2022-08-27T23:24:38;33.67;;;23.10;;
21731;SDS011;11028;51.156;17.130;2022-08-27T23:32:16;32.15;;;24.75;;
21731;SDS011;11028;51.156;17.130;2022-08-27T23:39:33;38.45;;;25.73;;
21731;SDS011;11028;51.156;17.130;2022-08-27T23:46:49;37.90;;;26.65;;
21731;SDS011;11028;51.156;17.130;2022-08-27T23:54:07;40.88;;;28.00;;
